4XCGO LLHZ-LLHZ

Flight info

Callsign 4XCGO
Flight time 0h 20m
Altitude 1200
Route CVFR TYONA
Aircraft C172/L-V/N

Departure

Time 2026-04-23 21:07
Airport Herzliya Airport (LLHZ)

Arrival

Time 2026-04-23 21:27
Airport Herzliya Airport (LLHZ)
Time Latitude Longitude Altitude Speed Heading
2026-04-23 21:00 32.18219 34.82802 93 ft 0 kts 105°
2026-04-23 21:02 32.18217 34.82806 94 ft 5 kts 109°
2026-04-23 21:02 32.18200 34.82819 94 ft 3 kts 136°
2026-04-23 21:02 32.18190 34.82847 94 ft 4 kts 108°
2026-04-23 21:02 32.18170 34.82910 94 ft 10 kts 109°
2026-04-23 21:03 32.18145 34.82991 96 ft 9 kts 110°
2026-04-23 21:03 32.18116 34.83051 97 ft 13 kts 112°
2026-04-23 21:03 32.18090 34.83135 99 ft 9 kts 109°
2026-04-23 21:03 32.18070 34.83200 100 ft 9 kts 109°
2026-04-23 21:04 32.18038 34.83311 102 ft 16 kts 108°
2026-04-23 21:04 32.18008 34.83408 104 ft 12 kts 109°
2026-04-23 21:04 32.17982 34.83498 107 ft 14 kts 109°
2026-04-23 21:04 32.17946 34.83619 110 ft 13 kts 110°
2026-04-23 21:05 32.17924 34.83696 115 ft 7 kts 109°
2026-04-23 21:05 32.17912 34.83742 117 ft 6 kts 106°
2026-04-23 21:05 32.17884 34.83828 120 ft 11 kts 108°
2026-04-23 21:05 32.17896 34.83864 123 ft 7 kts
2026-04-23 21:06 32.17938 34.83775 121 ft 33 kts 292°
2026-04-23 21:06 32.18082 34.83317 149 ft 75 kts 290°
2026-04-23 21:06 32.18298 34.82721 309 ft 84 kts 306°
2026-04-23 21:06 32.18742 34.82286 503 ft 86 kts 340°
2026-04-23 21:07 32.19317 34.82105 742 ft 86 kts 341°
2026-04-23 21:07 32.19888 34.81835 966 ft 90 kts 335°
2026-04-23 21:07 32.20401 34.81346 1038 ft 107 kts 298°
2026-04-23 21:07 32.20141 34.80581 980 ft 124 kts 203°
2026-04-23 21:08 32.19313 34.80402 1088 ft 113 kts 187°
2026-04-23 21:08 32.18548 34.80176 1147 ft 116 kts 199°
2026-04-23 21:08 32.17772 34.79869 1188 ft 117 kts 200°
2026-04-23 21:08 32.16986 34.79522 1152 ft 123 kts 203°
2026-04-23 21:09 32.16179 34.79172 1055 ft 130 kts 198°
2026-04-23 21:09 32.15351 34.78830 870 ft 117 kts 205°
2026-04-23 21:09 32.14662 34.78436 748 ft 109 kts 206°
2026-04-23 21:09 32.13986 34.78052 772 ft 99 kts 203°
2026-04-23 21:10 32.13365 34.77742 800 ft 99 kts 203°
2026-04-23 21:10 32.12743 34.77432 841 ft 99 kts 204°
2026-04-23 21:10 32.12132 34.77141 901 ft 95 kts 201°
2026-04-23 21:10 32.11505 34.76863 839 ft 101 kts 202°
2026-04-23 21:11 32.10840 34.76548 806 ft 103 kts 202°
2026-04-23 21:11 32.10205 34.76257 834 ft 98 kts 201°
2026-04-23 21:11 32.09528 34.75967 776 ft 103 kts 199°
2026-04-23 21:11 32.08859 34.75637 752 ft 101 kts 204°
2026-04-23 21:12 32.08202 34.75333 716 ft 101 kts 202°
2026-04-23 21:12 32.07595 34.75054 811 ft 85 kts 204°
2026-04-23 21:12 32.07029 34.74767 764 ft 94 kts 202°
2026-04-23 21:12 32.06410 34.74487 759 ft 95 kts 201°
2026-04-23 21:13 32.05787 34.74262 770 ft 95 kts 198°
2026-04-23 21:13 32.05146 34.74039 760 ft 95 kts 196°
2026-04-23 21:13 32.04523 34.73955 775 ft 97 kts 186°
2026-04-23 21:13 32.03849 34.73737 737 ft 99 kts 199°
2026-04-23 21:14 32.03317 34.73512 739 ft 73 kts 201°
2026-04-23 21:14 32.02783 34.73294 741 ft 85 kts 199°
2026-04-23 21:14 32.02185 34.73114 739 ft 92 kts 187°
2026-04-23 21:14 32.01520 34.73113 618 ft 106 kts 180°
2026-04-23 21:15 32.00863 34.73002 786 ft 87 kts 194°
2026-04-23 21:15 32.00458 34.73267 885 ft 74 kts 80°
2026-04-23 21:15 32.00808 34.73481 1009 ft 73 kts
2026-04-23 21:15 32.01375 34.73559 1037 ft 94 kts
2026-04-23 21:16 32.02053 34.73711 1127 ft 99 kts
2026-04-23 21:16 32.02756 34.73856 1229 ft 103 kts 14°
2026-04-23 21:16 32.03471 34.74076 1264 ft 109 kts 11°
2026-04-23 21:16 32.04247 34.74228 1199 ft 115 kts 356°
2026-04-23 21:17 32.04988 34.74507 1103 ft 116 kts 35°
2026-04-23 21:17 32.05711 34.74950 1025 ft 118 kts 24°
2026-04-23 21:17 32.06411 34.75339 1167 ft 107 kts 21°
2026-04-23 21:17 32.07136 34.75674 1128 ft 114 kts 18°
2026-04-23 21:18 32.07897 34.75974 1087 ft 115 kts 17°
2026-04-23 21:18 32.08638 34.76220 1223 ft 105 kts 10°
2026-04-23 21:18 32.09376 34.76396 1260 ft 108 kts 21°
2026-04-23 21:18 32.09677 34.77136 1171 ft 125 kts 91°
2026-04-23 21:19 32.09629 34.78117 1072 ft 106 kts 86°
2026-04-23 21:19 32.09620 34.78913 1136 ft 89 kts 85°
2026-04-23 21:19 32.09716 34.79647 1225 ft 86 kts 64°
2026-04-23 21:19 32.09865 34.80412 1140 ft 106 kts 85°
2026-04-23 21:20 32.09799 34.81309 1068 ft 106 kts 93°
2026-04-23 21:20 32.09802 34.82137 1120 ft 99 kts 83°
2026-04-23 21:20 32.09948 34.82969 1048 ft 108 kts 75°
2026-04-23 21:20 32.10085 34.83797 1122 ft 100 kts 77°
2026-04-23 21:21 32.10260 34.84596 1131 ft 102 kts 61°
2026-04-23 21:21 32.10760 34.85126 1115 ft 102 kts 22°
2026-04-23 21:21 32.11121 34.85440 1036 ft 106 kts 54°
2026-04-23 21:21 32.11355 34.86281 1016 ft 102 kts 73°
2026-04-23 21:22 32.11554 34.87049 1100 ft 97 kts 64°
2026-04-23 21:22 32.12121 34.87899 953 ft 108 kts 33°
2026-04-23 21:22 32.12555 34.88165 1013 ft 95 kts 24°
2026-04-23 21:22 32.13110 34.88459 1188 ft 82 kts 23°
2026-04-23 21:23 32.13641 34.88715 1221 ft 89 kts 19°
2026-04-23 21:23 32.14227 34.88956 1269 ft 88 kts 16°
2026-04-23 21:23 32.14819 34.89059 1314 ft 90 kts 351°
2026-04-23 21:23 32.15399 34.88715 1197 ft 102 kts 308°
2026-04-23 21:24 32.15915 34.88086 1073 ft 105 kts 317°
2026-04-23 21:24 32.16439 34.87485 952 ft 108 kts 314°
2026-04-23 21:24 32.16878 34.86810 1016 ft 97 kts 304°
2026-04-23 21:24 32.17202 34.86143 1138 ft 90 kts 296°
2026-04-23 21:25 32.17434 34.85477 1281 ft 88 kts 293°
2026-04-23 21:25 32.17649 34.84759 1338 ft 98 kts 290°
2026-04-23 21:25 32.17964 34.83992 1066 ft 105 kts 321°
2026-04-23 21:25 32.18607 34.83861 823 ft 92 kts 18°
2026-04-23 21:26 32.18900 34.84452 710 ft 87 kts 101°
2026-04-23 21:26 32.18718 34.85085 757 ft 77 kts 122°
2026-04-23 21:26 32.18186 34.85264 664 ft 85 kts 189°
2026-04-23 21:26 32.17631 34.85098 684 ft 72 kts 199°
2026-04-23 21:27 32.17619 34.84705 477 ft 65 kts 314°
2026-04-23 21:27 32.17795 34.84218 271 ft 61 kts 286°
2026-04-23 21:27 32.17931 34.83794 143 ft 54 kts 294°
2026-04-23 21:27 32.18029 34.83479 105 ft 27 kts 282°
2026-04-23 21:28 32.18044 34.83330 103 ft 10 kts 214°
2026-04-23 21:28 32.18066 34.83225 101 ft 20 kts 295°
2026-04-23 21:28 32.18125 34.83032 97 ft 23 kts 302°
2026-04-23 21:28 32.18177 34.82887 95 ft 14 kts 289°
2026-04-23 21:29 32.18216 34.82815 95 ft 7 kts 356°
2026-04-23 21:29 32.18227 34.82803 95 ft 2 kts 238°
2026-04-23 21:29 32.18218 34.82801 95 ft 1 kts 144°
2026-04-23 21:29 32.18216 34.82804 95 ft 0 kts 112°